Time;durP1;ratioP1;P1;durP2;ratioP2;P2;SDS_P1;SDS_P2;PMS_P1;PMS_P2;Temp;Humidity;BMP_temperature;BMP_pressure;BME280_temperature;BME280_humidity;BME280_pressure;Samples;Min_cycle;Max_cycle;Signal;HPM_P1;HPM_P2
2023/03/26 00:01:40;;;;;;;7.10;5.00;;;;;;;6.94;78.06;96927.26;109594;1289;22162;-81
2023/03/26 00:04:09;;;;;;;7.80;4.60;;;;;;;6.96;77.97;96927.60;109673;1289;22119;-82
2023/03/26 00:06:38;;;;;;;6.40;4.90;;;;;;;6.96;77.76;96925.13;109666;1289;22310;-81
2023/03/26 00:09:09;;;;;;;6.70;5.10;;;;;;;6.91;77.75;96926.15;109659;1283;22158;-80
2023/03/26 00:11:37;;;;;;;5.80;4.20;;;;;;;6.93;78.12;96926.96;109595;1289;22194;-82
2023/03/26 00:14:05;;;;;;;8.20;5.50;;;;;;;6.94;78.74;96921.90;109642;1289;22301;-80
2023/03/26 00:16:33;;;;;;;7.60;5.50;;;;;;;6.93;78.17;96921.52;109654;1289;22217;-80
2023/03/26 00:19:01;;;;;;;11.60;6.60;;;;;;;6.92;78.20;96918.73;109529;1289;167713;-81
2023/03/26 00:21:30;;;;;;;7.40;5.90;;;;;;;6.89;78.22;96917.24;109625;1277;22138;-81
2023/03/26 00:24:03;;;;;;;8.40;6.40;;;;;;;6.88;78.62;96914.84;109656;1289;22155;-82
2023/03/26 00:26:32;;;;;;;7.70;5.60;;;;;;;6.89;79.05;96909.96;109630;1289;22267;-82
2023/03/26 00:29:02;;;;;;;7.00;5.80;;;;;;;6.88;78.86;96908.70;109622;1289;23144;-82
2023/03/26 00:31:31;;;;;;;9.60;6.40;;;;;;;6.85;78.68;96906.17;109632;1289;22886;-82
2023/03/26 00:34:02;;;;;;;8.10;6.30;;;;;;;6.82;78.76;96903.60;109631;1289;23132;-82
2023/03/26 00:36:30;;;;;;;8.10;5.70;;;;;;;6.81;79.18;96906.19;109609;1289;23205;-82
2023/03/26 00:39:00;;;;;;;7.30;5.90;;;;;;;6.83;79.73;96909.69;109649;1289;22367;-82
2023/03/26 00:41:29;;;;;;;8.80;6.30;;;;;;;6.83;79.49;96912.90;109642;1289;22248;-82
2023/03/26 00:43:59;;;;;;;8.30;6.60;;;;;;;6.80;79.28;96910.66;109573;1289;22213;-82
2023/03/26 00:46:30;;;;;;;9.10;6.70;;;;;;;6.80;79.26;96913.06;109598;1289;22253;-82
2023/03/26 00:48:59;;;;;;;10.10;6.50;;;;;;;6.83;79.74;96911.83;109642;1289;22339;-81
2023/03/26 00:51:27;;;;;;;10.30;6.50;;;;;;;6.84;79.72;96911.97;109624;1289;22158;-82
2023/03/26 00:53:56;;;;;;;7.40;6.00;;;;;;;6.85;79.31;96916.13;109638;1289;22409;-82
2023/03/26 00:56:25;;;;;;;10.20;6.20;;;;;;;6.86;79.30;96931.33;109633;1289;22378;-81
2023/03/26 00:58:53;;;;;;;10.80;6.20;;;;;;;6.88;79.17;96944.26;109635;1289;22204;-82
2023/03/26 01:01:26;;;;;;;7.70;5.70;;;;;;;6.88;79.62;96934.71;109589;1289;22220;-82
2023/03/26 01:03:57;;;;;;;8.00;5.60;;;;;;;6.83;79.80;96933.54;109640;1289;22283;-82
2023/03/26 01:06:40;;;;;;;8.10;6.30;;;;;;;6.74;80.32;96918.02;109623;1289;22868;-82
2023/03/26 01:09:14;;;;;;;6.40;4.50;;;;;;;6.59;80.33;96903.20;109641;1289;22306;-82
2023/03/26 01:11:44;;;;;;;6.50;4.30;;;;;;;6.54;81.52;96913.29;109630;1289;22204;-82
2023/03/26 01:14:16;;;;;;;6.90;4.30;;;;;;;6.49;81.85;96908.42;109635;1289;22295;-82
2023/03/26 01:16:53;;;;;;;7.50;4.80;;;;;;;6.39;81.95;96906.30;109460;1289;22203;-82
2023/03/26 01:19:38;;;;;;;7.30;7.10;;;;;;;6.32;82.00;96912.64;109620;1274;22907;-82
2023/03/26 01:22:09;;;;;;;9.30;5.80;;;;;;;6.28;82.44;96903.45;109652;1289;21925;-82
2023/03/26 01:24:39;;;;;;;9.80;5.00;;;;;;;6.28;82.24;96895.67;109624;1274;22234;-83
2023/03/26 01:27:16;;;;;;;8.10;5.40;;;;;;;6.30;82.58;96889.55;109614;1289;22275;-83
2023/03/26 01:29:55;;;;;;;7.50;5.80;;;;;;;6.29;82.62;96895.73;109646;1289;22237;-82
2023/03/26 01:32:32;;;;;;;9.50;5.60;;;;;;;6.26;82.83;96886.09;109633;1289;22254;-82
2023/03/26 01:35:13;;;;;;;7.60;5.30;;;;;;;6.24;82.39;96877.56;109613;1289;22307;-82
2023/03/26 01:37:41;;;;;;;8.00;5.10;;;;;;;6.25;82.26;96878.36;109636;1289;23091;-82
2023/03/26 01:40:22;;;;;;;7.90;5.60;;;;;;;6.26;82.43;96876.82;109643;1289;23059;-83
2023/03/26 01:43:09;;;;;;;7.30;5.90;;;;;;;6.28;83.03;96875.46;109634;1289;22214;-82
2023/03/26 01:45:41;;;;;;;10.50;7.60;;;;;;;6.24;82.39;96875.42;109571;1289;22166;-82
2023/03/26 01:48:09;;;;;;;9.50;7.10;;;;;;;6.22;82.88;96874.45;109647;1289;22396;-82
2023/03/26 01:50:37;;;;;;;9.30;6.90;;;;;;;6.21;82.63;96876.52;109654;1289;22129;-83
2023/03/26 01:53:07;;;;;;;7.60;5.70;;;;;;;6.23;82.60;96878.87;109657;1289;22218;-83
2023/03/26 01:56:01;;;;;;;8.20;6.00;;;;;;;6.28;82.54;96872.98;109628;1289;22209;-83
2023/03/26 01:58:48;;;;;;;8.50;6.50;;;;;;;6.32;82.43;96872.88;109655;1289;22305;-83
2023/03/26 02:01:29;;;;;;;8.60;6.60;;;;;;;6.28;82.59;96875.56;109638;1289;22183;-83
2023/03/26 02:04:38;;;;;;;10.00;8.90;;;;;;;6.24;82.40;96872.48;109663;1289;22312;-83
2023/03/26 02:07:28;;;;;;;13.20;11.10;;;;;;;6.22;83.56;96870.77;109564;1289;22286;-83
2023/03/26 02:10:05;;;;;;;14.80;13.50;;;;;;;6.20;83.35;96868.23;109578;1289;22266;-83
2023/03/26 02:12:34;;;;;;;17.20;15.60;;;;;;;6.19;83.24;96864.02;109585;1289;22914;-83
2023/03/26 02:15:03;;;;;;;18.80;17.00;;;;;;;6.15;83.38;96867.72;109651;1289;22245;-84
2023/03/26 02:17:31;;;;;;;18.90;17.20;;;;;;;6.13;83.93;96866.09;109669;1289;23046;-83
2023/03/26 02:20:09;;;;;;;18.20;16.60;;;;;;;6.09;83.80;96868.58;109682;1289;22295;-83
2023/03/26 02:22:44;;;;;;;18.30;16.70;;;;;;;6.10;84.74;96861.99;109587;1289;22663;-84
2023/03/26 02:25:16;;;;;;;20.00;18.20;;;;;;;6.09;84.58;96859.91;109536;1289;22203;-83
2023/03/26 02:27:45;;;;;;;20.40;18.60;;;;;;;6.07;84.66;96856.20;109659;1273;22249;-83
2023/03/26 02:30:28;;;;;;;20.40;18.50;;;;;;;6.04;84.53;96857.86;109642;1278;22192;-83
2023/03/26 02:32:58;;;;;;;17.00;15.40;;;;;;;6.01;84.50;96857.05;109658;1289;22173;-83
2023/03/26 02:35:33;;;;;;;19.30;17.50;;;;;;;6.00;84.21;96857.29;109586;1289;22225;-83
2023/03/26 02:38:01;;;;;;;17.10;15.70;;;;;;;6.01;84.32;96860.21;109643;1289;22301;-83
2023/03/26 02:40:29;;;;;;;18.20;16.50;;;;;;;6.02;84.50;96857.10;109442;1289;22232;-82
2023/03/26 02:42:57;;;;;;;19.50;17.50;;;;;;;6.00;84.67;96860.83;109570;1289;22207;-82
2023/03/26 02:45:27;;;;;;;19.30;17.70;;;;;;;5.95;84.41;96863.85;109648;1289;22868;-82
2023/03/26 02:48:27;;;;;;;21.50;19.60;;;;;;;5.88;84.71;96862.39;109643;1286;22210;-82
2023/03/26 02:51:13;;;;;;;19.00;17.30;;;;;;;5.81;84.85;96860.25;109602;1289;22159;-82
2023/03/26 02:54:02;;;;;;;17.00;15.40;;;;;;;5.81;84.95;96861.91;109663;1289;22979;-83
2023/03/26 02:56:54;;;;;;;16.70;13.20;;;;;;;5.83;85.30;96863.86;109665;1289;22324;-82
2023/03/26 02:59:34;;;;;;;13.70;12.20;;;;;;;5.83;85.49;96861.29;109651;1289;22346;-82
2023/03/26 03:02:31;;;;;;;14.50;13.00;;;;;;;5.82;85.63;96864.56;109155;1289;22247;-83
2023/03/26 03:05:09;;;;;;;11.00;9.80;;;;;;;5.81;85.63;96870.36;109622;1289;22223;-83
2023/03/26 03:07:37;;;;;;;10.10;8.60;;;;;;;5.82;85.81;96871.52;109645;1289;23060;-82
2023/03/26 03:10:12;;;;;;;10.50;8.60;;;;;;;5.86;86.07;96876.42;109577;1289;22281;-82
2023/03/26 03:12:59;;;;;;;8.80;7.70;;;;;;;5.90;86.17;96875.98;109646;1289;22312;-82
2023/03/26 03:15:27;;;;;;;8.80;7.00;;;;;;;5.90;86.40;96876.99;109616;1289;22318;-82
2023/03/26 03:17:55;;;;;;;7.90;6.50;;;;;;;5.89;86.22;96878.10;109636;1289;22211;-82
2023/03/26 03:20:26;;;;;;;8.80;6.30;;;;;;;5.89;86.23;96872.95;109649;1289;22679;-83
2023/03/26 03:22:54;;;;;;;8.40;6.20;;;;;;;5.92;86.37;96856.73;109570;1289;22191;-82
2023/03/26 03:25:24;;;;;;;7.20;5.00;;;;;;;5.96;86.56;96852.02;109648;1267;22416;-82
2023/03/26 03:27:53;;;;;;;6.90;5.20;;;;;;;5.97;86.68;96854.55;109571;1289;22194;-82
2023/03/26 03:30:21;;;;;;;7.30;6.90;;;;;;;5.95;86.53;96850.75;109675;1289;22289;-82
2023/03/26 03:33:20;;;;;;;7.40;5.70;;;;;;;5.95;86.18;96846.75;109464;1289;22314;-82
2023/03/26 03:35:49;;;;;;;7.40;4.50;;;;;;;5.97;86.01;96850.02;109565;1289;22210;-82
2023/03/26 03:38:18;;;;;;;6.80;4.80;;;;;;;6.01;86.44;96853.85;109553;1289;22331;-83
2023/03/26 03:40:48;;;;;;;8.40;5.10;;;;;;;6.03;86.45;96857.35;109565;1289;22211;-82
2023/03/26 03:43:16;;;;;;;7.90;6.40;;;;;;;6.06;86.88;96864.04;109643;1289;22276;-81
2023/03/26 03:45:56;;;;;;;10.20;6.50;;;;;;;6.04;86.71;96860.43;109567;1289;22265;-81
2023/03/26 03:48:46;;;;;;;8.80;6.80;;;;;;;6.02;86.76;96853.83;109641;1289;23031;-80
2023/03/26 03:51:17;;;;;;;10.70;7.40;;;;;;;6.04;86.92;96851.61;109583;1289;22202;-81
2023/03/26 03:53:57;;;;;;;9.50;7.30;;;;;;;6.06;87.08;96857.49;109677;1289;22214;-81
2023/03/26 03:56:39;;;;;;;8.80;7.00;;;;;;;6.09;87.19;96854.73;109664;1289;22215;-83
2023/03/26 03:59:25;;;;;;;9.40;6.30;;;;;;;6.06;86.84;96856.33;109752;1289;22240;-82
2023/03/26 04:01:53;;;;;;;8.40;5.60;;;;;;;6.07;86.53;96856.48;109676;1289;22176;-82
2023/03/26 04:04:33;;;;;;;10.30;5.50;;;;;;;6.11;86.72;96853.19;109610;1289;22351;-82
2023/03/26 04:07:06;;;;;;;8.40;5.60;;;;;;;6.14;86.84;96849.88;109668;1289;22813;-81
2023/03/26 04:09:49;;;;;;;8.50;5.40;;;;;;;6.16;86.55;96846.80;109613;1289;23270;-81
2023/03/26 04:12:18;;;;;;;10.40;6.00;;;;;;;6.17;86.35;96846.08;109570;1289;22309;-81
2023/03/26 04:14:55;;;;;;;7.50;5.90;;;;;;;6.16;86.17;96843.91;109665;1289;22941;-81
2023/03/26 04:17:24;;;;;;;8.60;5.50;;;;;;;6.18;86.29;96843.34;109570;1289;22305;-81
2023/03/26 04:19:55;;;;;;;8.90;6.00;;;;;;;6.21;86.48;96841.93;109648;1289;22359;-81
2023/03/26 04:22:33;;;;;;;7.70;5.90;;;;;;;6.23;86.31;96842.71;109668;1289;23081;-81
2023/03/26 04:25:04;;;;;;;8.20;6.60;;;;;;;6.22;85.89;96845.02;109547;1289;22392;-82
2023/03/26 04:27:40;;;;;;;7.70;5.30;;;;;;;6.20;85.81;96845.76;109676;1289;22199;-81
2023/03/26 04:30:22;;;;;;;7.20;5.20;;;;;;;6.23;85.96;96841.05;109587;1289;22268;-81
2023/03/26 04:33:16;;;;;;;8.50;4.70;;;;;;;6.26;85.99;96841.14;109415;1289;22296;-81
2023/03/26 04:35:44;;;;;;;7.50;5.20;;;;;;;6.25;85.63;96842.29;109650;1289;22215;-81
2023/03/26 04:38:16;;;;;;;6.60;4.30;;;;;;;6.25;85.35;96843.04;109536;1289;22292;-81
2023/03/26 04:40:47;;;;;;;8.40;4.60;;;;;;;6.26;85.22;96845.89;109673;1289;22208;-81
2023/03/26 04:43:17;;;;;;;10.70;4.90;;;;;;;6.29;85.35;96847.46;109662;1289;22559;-82
2023/03/26 04:46:04;;;;;;;12.10;6.60;;;;;;;6.33;85.43;96842.58;109663;1289;22431;-81
2023/03/26 04:48:39;;;;;;;7.10;4.60;;;;;;;6.33;85.06;96845.52;109657;1289;23062;-81
2023/03/26 04:51:16;;;;;;;8.80;5.00;;;;;;;6.31;84.79;96841.58;109558;1289;22240;-82
2023/03/26 04:53:52;;;;;;;7.50;3.90;;;;;;;6.32;84.76;96840.28;109651;1289;22253;-82
2023/03/26 04:56:48;;;;;;;7.90;4.30;;;;;;;6.35;84.90;96840.22;109546;1289;22198;-82
2023/03/26 04:59:33;;;;;;;7.30;4.80;;;;;;;6.37;84.80;96837.45;109560;1289;22208;-82
2023/03/26 05:02:05;;;;;;;8.70;5.30;;;;;;;6.35;84.78;96834.83;109322;1289;22233;-82
2023/03/26 05:04:38;;;;;;;8.20;5.30;;;;;;;6.34;84.58;96834.69;109581;1289;22225;-82
2023/03/26 05:07:08;;;;;;;8.20;5.40;;;;;;;6.38;84.75;96835.36;109691;1289;22393;-82
2023/03/26 05:09:43;;;;;;;10.10;5.30;;;;;;;6.43;84.81;96839.28;109651;1284;22255;-82
2023/03/26 05:12:15;;;;;;;9.20;5.30;;;;;;;6.46;84.73;96836.65;109579;1289;22125;-82
2023/03/26 05:15:07;;;;;;;8.90;5.70;;;;;;;6.47;84.46;96842.30;109604;1289;22235;-82
2023/03/26 05:17:58;;;;;;;10.60;5.80;;;;;;;6.48;84.23;96838.80;109622;1289;22821;-83
2023/03/26 05:20:49;;;;;;;9.60;5.70;;;;;;;6.53;84.32;96842.13;109586;1289;22200;-82
2023/03/26 05:23:17;;;;;;;8.60;5.20;;;;;;;6.55;84.18;96844.45;109683;1289;22191;-82
2023/03/26 05:25:50;;;;;;;9.20;5.90;;;;;;;6.58;83.63;96846.42;109592;1289;22907;-82
2023/03/26 05:28:23;;;;;;;8.30;5.80;;;;;;;6.59;83.28;96842.70;109564;1289;22211;-82
2023/03/26 05:30:54;;;;;;;7.00;4.70;;;;;;;6.63;83.21;96842.31;109674;1289;22312;-82
2023/03/26 05:33:24;;;;;;;6.40;4.30;;;;;;;6.68;83.52;96842.46;109547;1289;23101;-81
2023/03/26 05:36:14;;;;;;;6.70;4.90;;;;;;;6.71;83.05;96837.75;109666;1289;22289;-82
2023/03/26 05:39:08;;;;;;;7.70;4.70;;;;;;;6.74;82.59;96841.27;109436;1289;22263;-82
2023/03/26 05:42:11;;;;;;;7.30;4.70;;;;;;;6.77;81.78;96841.38;109082;1289;22963;-82
2023/03/26 05:44:52;;;;;;;7.90;4.80;;;;;;;6.82;82.18;96838.39;109527;1289;23094;-82
2023/03/26 05:47:26;;;;;;;6.90;4.60;;;;;;;6.86;82.25;96836.15;109554;1289;23028;-81
2023/03/26 05:49:54;;;;;;;6.00;4.50;;;;;;;6.91;82.06;96839.16;109643;1289;22989;-81
2023/03/26 05:52:23;;;;;;;7.40;4.20;;;;;;;6.96;81.03;96843.19;109548;1289;22244;-81
2023/03/26 05:55:10;;;;;;;4.50;3.80;;;;;;;6.96;80.76;96841.98;109665;1289;22152;-82
2023/03/26 05:57:56;;;;;;;8.20;4.90;;;;;;;7.04;80.72;96839.84;109645;1284;22209;-82
2023/03/26 06:00:47;;;;;;;5.90;4.20;;;;;;;7.17;80.87;96845.84;109662;1289;22225;-81
2023/03/26 06:03:18;;;;;;;6.90;4.10;;;;;;;7.25;79.94;96846.44;109523;1289;22245;-82
2023/03/26 06:06:14;;;;;;;6.80;3.90;;;;;;;7.30;79.37;96850.27;109657;1289;22298;-81
2023/03/26 06:08:49;;;;;;;7.90;4.20;;;;;;;7.29;78.50;96853.21;109558;1289;23101;-81
2023/03/26 06:11:30;;;;;;;7.10;4.70;;;;;;;7.28;78.47;96851.64;109665;1289;22207;-82
2023/03/26 06:13:59;;;;;;;7.70;5.60;;;;;;;7.31;78.52;96854.09;109686;1289;22918;-82
2023/03/26 06:16:27;;;;;;;12.10;6.30;;;;;;;7.31;78.73;96858.59;109667;1289;22292;-81
2023/03/26 06:19:05;;;;;;;7.00;4.80;;;;;;;7.32;78.45;96858.30;109669;1289;22277;-81
2023/03/26 06:21:49;;;;;;;9.60;4.40;;;;;;;7.33;77.81;96853.13;109655;1289;22154;-81
2023/03/26 06:24:21;;;;;;;7.70;4.50;;;;;;;7.31;77.53;96862.13;109675;1289;23049;-80
2023/03/26 06:27:22;;;;;;;7.60;4.10;;;;;;;7.34;78.27;96859.00;109331;1289;22817;-82
2023/03/26 06:30:21;;;;;;;6.40;4.80;;;;;;;7.36;77.55;96859.17;109656;1289;22187;-82
2023/03/26 06:33:12;;;;;;;8.60;4.80;;;;;;;7.37;77.16;96867.94;109552;1289;22193;-82
2023/03/26 06:35:47;;;;;;;7.30;5.00;;;;;;;7.39;76.73;96870.14;109643;1289;22249;-82
2023/03/26 06:38:16;;;;;;;7.20;4.40;;;;;;;7.41;76.71;96864.00;109552;1289;22200;-81
2023/03/26 06:40:44;;;;;;;6.30;4.50;;;;;;;7.48;76.90;96872.67;109638;1289;22292;-82
2023/03/26 06:43:21;;;;;;;7.70;4.80;;;;;;;7.55;77.08;96866.20;109681;1289;22247;-82
2023/03/26 06:45:55;;;;;;;10.90;5.00;;;;;;;7.60;76.93;96869.13;109650;1289;23086;-82
2023/03/26 06:48:44;;;;;;;6.00;4.40;;;;;;;7.64;76.12;96869.56;109221;1289;22959;-81
2023/03/26 06:51:19;;;;;;;7.50;5.00;;;;;;;7.64;75.49;96866.45;109560;1289;22241;-81
2023/03/26 06:54:06;;;;;;;6.80;4.70;;;;;;;7.65;75.22;96860.44;109655;1289;22946;-81
2023/03/26 06:57:12;;;;;;;7.90;4.60;;;;;;;7.68;75.57;96864.70;108821;1277;22231;-81
2023/03/26 06:59:59;;;;;;;7.90;4.70;;;;;;;7.71;75.05;96863.76;109662;1289;22921;-81
2023/03/26 07:02:50;;;;;;;12.80;8.60;;;;;;;7.83;74.71;96871.05;109237;1289;22953;-81
2023/03/26 07:05:40;;;;;;;7.60;5.40;;;;;;;7.91;74.50;96868.70;109650;1289;22144;-81
2023/03/26 07:08:26;;;;;;;8.10;4.50;;;;;;;8.07;73.80;96861.70;109674;1289;22198;-82
2023/03/26 07:11:15;;;;;;;8.20;4.30;;;;;;;8.22;72.68;96862.89;109656;1289;22186;-82
2023/03/26 07:14:10;;;;;;;7.60;5.30;;;;;;;8.37;72.52;96866.79;109416;1289;22872;-83
2023/03/26 07:16:58;;;;;;;8.80;4.50;;;;;;;8.48;71.83;96865.96;109495;1289;22198;-80
2023/03/26 07:19:34;;;;;;;5.90;3.60;;;;;;;8.50;71.96;96864.96;109649;1289;22143;-81
2023/03/26 07:22:03;;;;;;;7.70;4.80;;;;;;;8.52;71.05;96860.94;109555;1289;22357;-80
2023/03/26 07:24:51;;;;;;;7.30;4.40;;;;;;;8.47;70.93;96857.88;109507;1289;22235;-80
2023/03/26 07:27:51;;;;;;;8.90;5.10;;;;;;;8.45;71.29;96854.52;109648;1289;22267;-80
2023/03/26 07:30:51;;;;;;;6.10;4.20;;;;;;;8.51;70.98;96852.21;109650;1289;22148;-80
2023/03/26 07:33:41;;;;;;;8.90;4.90;;;;;;;8.51;70.65;96857.67;109550;1289;22227;-82
2023/03/26 07:36:53;;;;;;;9.40;4.50;;;;;;;8.58;71.04;96856.23;109161;1289;22304;-82
2023/03/26 07:39:56;;;;;;;6.90;5.30;;;;;;;8.65;71.13;96849.89;109681;1289;22142;-81
2023/03/26 07:43:08;;;;;;;6.70;4.50;;;;;;;8.75;71.43;96849.66;109660;1289;22244;-84
2023/03/26 07:45:56;;;;;;;8.60;4.30;;;;;;;8.81;69.89;96865.31;109669;1289;22248;-81
2023/03/26 07:48:46;;;;;;;10.60;4.90;;;;;;;8.77;69.47;96861.89;109538;1289;22970;-81
2023/03/26 07:51:39;;;;;;;8.50;4.10;;;;;;;8.76;69.27;96851.88;109538;1289;22908;-82
2023/03/26 07:54:16;;;;;;;7.70;4.70;;;;;;;8.76;69.12;96847.70;109556;1289;22173;-81
2023/03/26 07:57:05;;;;;;;6.80;4.60;;;;;;;8.75;69.59;96844.67;109659;1289;23034;-83
2023/03/26 08:00:10;;;;;;;7.60;4.70;;;;;;;8.81;69.83;96849.11;109492;1289;22383;-83
2023/03/26 08:03:13;;;;;;;6.30;4.20;;;;;;;8.90;70.00;96854.72;109450;1289;22185;-83
2023/03/26 08:06:09;;;;;;;6.70;3.90;;;;;;;8.96;69.85;96852.78;109653;1289;22224;-84
2023/03/26 08:09:28;;;;;;;6.80;3.50;;;;;;;8.99;69.22;96860.14;109465;1289;23088;-84
2023/03/26 08:12:22;;;;;;;6.00;4.30;;;;;;;8.97;68.25;96858.30;109668;1289;22238;-84
2023/03/26 08:15:24;;;;;;;7.10;4.10;;;;;;;8.93;67.62;96868.04;109567;1289;23216;-85
2023/03/26 08:18:18;;;;;;;7.80;4.50;;;;;;;8.94;67.90;96864.15;109094;1295;22263;-84
2023/03/26 08:20:50;;;;;;;7.40;4.50;;;;;;;8.99;68.10;96854.45;109050;1294;22950;-84
2023/03/26 08:23:27;;;;;;;8.60;4.80;;;;;;;9.05;67.83;96852.64;109104;1295;22909;-84
2023/03/26 08:26:08;;;;;;;9.70;4.20;;;;;;;9.20;68.19;96858.79;109116;1294;22327;-83
2023/03/26 08:28:49;;;;;;;8.90;4.20;;;;;;;9.25;67.54;96845.59;109113;1295;22291;-85
2023/03/26 08:31:22;;;;;;;7.10;4.30;;;;;;;9.32;67.78;96837.45;108912;1295;22990;-86
2023/03/26 08:33:50;;;;;;;7.30;4.60;;;;;;;9.39;67.20;96845.45;109129;1283;22143;-86
2023/03/26 08:36:18;;;;;;;9.30;4.70;;;;;;;9.40;66.59;96842.98;109256;1295;22229;-84
2023/03/26 08:38:47;;;;;;;6.80;4.30;;;;;;;9.42;66.26;96841.11;109121;1294;22250;-86
2023/03/26 08:41:24;;;;;;;5.60;4.20;;;;;;;9.44;66.19;96843.83;109106;1295;22238;-84
2023/03/26 08:44:17;;;;;;;7.50;4.20;;;;;;;9.48;65.73;96846.52;109128;1295;22306;-84
2023/03/26 08:46:48;;;;;;;8.30;3.70;;;;;;;9.56;65.21;96847.27;109133;1294;22442;-83
2023/03/26 08:49:41;;;;;;;6.50;4.10;;;;;;;9.62;64.25;96842.42;109128;1294;22341;-84
2023/03/26 08:52:33;;;;;;;8.20;4.50;;;;;;;9.65;64.50;96833.90;109235;1295;22243;-84
2023/03/26 08:55:35;;;;;;;6.50;3.60;;;;;;;9.72;63.94;96837.36;109790;1289;23033;-84
2023/03/26 08:58:34;;;;;;;8.30;4.90;;;;;;;9.69;63.67;96833.63;109690;1289;22999;-85
2023/03/26 09:01:05;;;;;;;8.80;5.50;;;;;;;9.73;64.27;96828.27;109667;1289;22252;-85
2023/03/26 09:03:33;;;;;;;6.30;4.00;;;;;;;9.85;63.69;96826.92;109574;1289;22211;-85
2023/03/26 09:06:37;;;;;;;7.60;4.60;;;;;;;9.88;62.62;96825.43;109671;1289;22205;-85
2023/03/26 09:09:08;;;;;;;5.10;3.80;;;;;;;9.94;62.06;96825.29;109663;1289;22219;-85
2023/03/26 09:12:15;;;;;;;6.00;3.60;;;;;;;9.94;61.02;96821.84;109678;1289;22854;-85
2023/03/26 09:15:05;;;;;;;5.60;4.00;;;;;;;9.96;60.72;96824.34;109600;1289;22288;-86
2023/03/26 09:17:40;;;;;;;7.30;4.50;;;;;;;10.02;61.45;96810.39;109679;1289;22932;-85
2023/03/26 09:20:49;;;;;;;4.80;3.40;;;;;;;10.07;61.09;96818.07;109664;1289;22149;-85
2023/03/26 09:23:48;;;;;;;5.00;3.40;;;;;;;10.03;60.33;96826.49;109666;1289;22209;-85
2023/03/26 09:26:41;;;;;;;7.20;3.40;;;;;;;10.07;60.39;96824.20;109650;1289;22225;-86
2023/03/26 09:29:35;;;;;;;6.00;3.60;;;;;;;10.08;60.04;96819.80;109658;1289;23316;-86
2023/03/26 09:32:29;;;;;;;4.70;3.30;;;;;;;10.07;59.73;96814.20;109659;1289;22411;-85
2023/03/26 09:35:16;;;;;;;5.50;3.40;;;;;;;10.01;59.80;96815.92;109682;1289;22252;-86
2023/03/26 09:38:09;;;;;;;5.80;3.80;;;;;;;9.95;59.90;96829.09;109687;1289;22294;-86
2023/03/26 09:41:12;;;;;;;6.50;3.50;;;;;;;9.89;60.24;96817.54;109702;1289;22101;-86
2023/03/26 09:43:55;;;;;;;5.60;4.10;;;;;;;9.88;60.36;96816.20;109120;1295;22269;-85
2023/03/26 09:46:44;;;;;;;5.20;3.60;;;;;;;9.91;60.77;96809.63;109335;1295;22194;-85
2023/03/26 09:49:23;;;;;;;5.50;3.70;;;;;;;9.98;60.88;96805.34;109076;1295;22196;-85
2023/03/26 09:52:10;;;;;;;6.40;4.20;;;;;;;10.10;60.83;96807.52;109211;1295;22204;-85
2023/03/26 09:54:55;;;;;;;5.90;3.10;;;;;;;10.20;59.92;96804.46;109004;1295;22954;-86
2023/03/26 09:57:27;;;;;;;4.70;3.10;;;;;;;10.24;59.98;96798.03;108942;1295;22236;-84
2023/03/26 10:00:08;;;;;;;7.50;4.50;;;;;;;10.35;59.45;96797.40;109067;1295;22270;-84
2023/03/26 10:03:00;;;;;;;7.80;5.00;;;;;;;10.43;59.34;96787.03;109070;1295;22269;-85
2023/03/26 10:05:47;;;;;;;4.80;3.40;;;;;;;10.47;59.23;96785.09;108974;1295;23005;-84
2023/03/26 10:08:36;;;;;;;5.60;4.30;;;;;;;10.57;59.18;96785.54;108960;1296;22314;-85
2023/03/26 10:11:22;;;;;;;5.80;3.50;;;;;;;10.62;58.84;96781.45;109054;1295;22164;-86
2023/03/26 10:14:32;;;;;;;5.20;3.50;;;;;;;10.65;58.63;96782.56;108875;1295;22318;-89
2023/03/26 10:17:18;;;;;;;5.80;3.50;;;;;;;10.71;59.10;96779.84;108909;1295;22376;-84
2023/03/26 10:20:03;;;;;;;7.30;3.50;;;;;;;10.70;58.41;96781.91;109149;1289;22238;-82
2023/03/26 10:22:59;;;;;;;4.70;3.30;;;;;;;10.64;58.52;96779.66;109598;1289;22373;-82
2023/03/26 10:25:53;;;;;;;7.40;3.90;;;;;;;10.61;58.70;96772.48;109838;1289;22143;-81
2023/03/26 10:28:31;;;;;;;5.70;3.10;;;;;;;10.66;58.92;96774.84;109476;1289;22220;-82
2023/03/26 10:31:06;;;;;;;7.90;4.20;;;;;;;10.69;58.61;96771.94;109869;1289;22207;-83
2023/03/26 10:34:15;;;;;;;6.20;4.00;;;;;;;10.73;58.84;96770.92;109877;1289;22167;-81
2023/03/26 10:37:15;;;;;;;5.40;3.10;;;;;;;10.80;58.37;96779.12;109600;1289;22573;-84
2023/03/26 10:39:54;;;;;;;4.90;3.40;;;;;;;10.80;57.88;96771.42;109664;1289;22127;-84
2023/03/26 10:46:37;;;;;;;4.90;3.20;;;;;;;10.79;57.43;96768.83;109686;1289;22617;-84
2023/03/26 10:49:24;;;;;;;7.20;4.90;;;;;;;10.86;57.49;96763.39;109690;1289;22295;-86
2023/03/26 10:51:57;;;;;;;6.50;3.50;;;;;;;11.01;57.60;96763.63;109648;1289;22204;-83
2023/03/26 10:54:50;;;;;;;4.60;2.60;;;;;;;11.15;56.87;96763.95;109573;1289;22294;-83
2023/03/26 10:57:43;;;;;;;3.60;2.60;;;;;;;11.13;55.78;96774.04;109656;1289;22981;-83
2023/03/26 11:00:26;;;;;;;3.60;2.60;;;;;;;11.02;55.16;96765.91;109646;1289;22265;-82
2023/03/26 11:03:19;;;;;;;5.90;3.30;;;;;;;10.94;54.77;96781.95;109465;1289;22727;-82
2023/03/26 11:06:17;;;;;;;5.70;3.70;;;;;;;10.84;55.44;96770.13;109637;1289;22333;-84
2023/03/26 11:09:11;;;;;;;7.20;4.00;;;;;;;10.79;55.91;96768.06;109643;1289;22416;-82
2023/03/26 11:11:54;;;;;;;6.10;3.90;;;;;;;10.74;56.11;96763.80;109641;1289;23126;-82
2023/03/26 11:14:22;;;;;;;5.40;4.00;;;;;;;10.70;56.36;96771.19;109643;1289;22274;-83
2023/03/26 11:17:19;;;;;;;7.60;4.00;;;;;;;10.66;56.59;96764.88;109645;1289;22093;-83
2023/03/26 11:20:16;;;;;;;7.70;5.50;;;;;;;10.64;57.03;96762.96;109636;1289;23409;-84
2023/03/26 11:23:22;;;;;;;7.10;3.80;;;;;;;10.62;57.02;96755.76;109617;1289;23020;-84
2023/03/26 11:25:58;;;;;;;6.40;3.90;;;;;;;10.60;57.30;96750.94;109632;1289;22947;-84
2023/03/26 11:29:05;;;;;;;4.90;3.90;;;;;;;10.56;57.62;96753.80;109631;1283;22320;-81
2023/03/26 11:32:05;;;;;;;9.80;6.90;;;;;;;10.58;57.86;96755.01;109022;1295;22269;-81
2023/03/26 11:34:48;;;;;;;7.40;5.60;;;;;;;10.60;57.86;96756.34;109034;1295;22288;-82
2023/03/26 11:37:32;;;;;;;6.70;4.90;;;;;;;10.59;57.84;96750.70;108892;1295;22408;-82
2023/03/26 11:40:06;;;;;;;10.40;8.20;;;;;;;10.60;57.96;96747.51;108895;1295;23318;-83
2023/03/26 11:42:34;;;;;;;12.80;7.50;;;;;;;10.61;58.13;96745.78;108893;1295;23110;-81
2023/03/26 11:45:06;;;;;;;12.70;11.10;;;;;;;10.59;59.20;96744.23;109047;1286;22331;-84
2023/03/26 11:47:52;;;;;;;11.70;8.10;;;;;;;10.49;59.67;96742.52;109009;1295;22264;-83
2023/03/26 11:50:27;;;;;;;8.50;5.60;;;;;;;10.41;60.42;96740.09;109000;1295;22032;-83
2023/03/26 11:53:10;;;;;;;8.90;7.40;;;;;;;10.33;60.57;96733.86;108983;1295;22983;-82
2023/03/26 11:55:43;;;;;;;10.10;8.60;;;;;;;10.35;60.82;96735.77;109025;1295;22672;-82
2023/03/26 11:58:46;;;;;;;11.70;8.00;;;;;;;10.48;60.77;96736.83;108996;1295;22212;-82
2023/03/26 12:01:21;;;;;;;8.20;5.40;;;;;;;10.86;60.06;96732.33;108808;1295;22310;-82
2023/03/26 12:03:56;;;;;;;9.40;6.00;;;;;;;11.04;58.35;96734.11;108983;1295;23302;-82
2023/03/26 12:06:26;;;;;;;5.80;3.80;;;;;;;11.08;57.94;96737.52;108966;1289;22421;-82
2023/03/26 12:08:55;;;;;;;7.50;4.70;;;;;;;11.07;57.42;96729.23;109601;1289;22249;-83
2023/03/26 12:11:27;;;;;;;7.40;4.70;;;;;;;11.06;57.19;96726.65;109552;1289;23013;-83
2023/03/26 12:14:04;;;;;;;7.90;4.10;;;;;;;11.05;56.68;96726.67;109648;1289;22277;-81
2023/03/26 12:16:33;;;;;;;6.60;4.50;;;;;;;11.01;56.39;96722.00;109585;1289;22362;-82
2023/03/26 12:19:07;;;;;;;15.30;12.40;;;;;;;11.03;56.55;96721.21;109497;1289;174587;-82
2023/03/26 12:21:47;;;;;;;6.50;4.30;;;;;;;11.05;56.19;96720.59;109599;1289;22251;-81
2023/03/26 12:24:30;;;;;;;7.90;5.10;;;;;;;11.07;56.19;96717.50;109655;1289;22188;-82
2023/03/26 12:27:20;;;;;;;6.70;5.00;;;;;;;11.12;56.33;96713.69;109584;1289;22203;-84
2023/03/26 12:29:58;;;;;;;6.60;4.60;;;;;;;11.29;55.68;96711.11;109632;1289;22274;-81
2023/03/26 12:32:32;;;;;;;6.50;4.40;;;;;;;11.37;54.90;96702.77;109567;1289;22197;-82
2023/03/26 12:35:21;;;;;;;5.40;4.00;;;;;;;11.43;55.08;96688.70;109624;1289;22830;-82
2023/03/26 12:37:49;;;;;;;6.50;4.00;;;;;;;11.53;54.38;96685.44;109587;1287;22275;-82